Time;durP1;ratioP1;P1;durP2;ratioP2;P2;SDS_P1;SDS_P2;PMS_P1;PMS_P2;Temp;Humidity;BMP_temperature;BMP_pressure;BME280_temperature;BME280_humidity;BME280_pressure;Samples;Min_cycle;Max_cycle;Signal;HPM_P1;HPM_P2
2023/06/14 00:02:00;;;;;;;4.45;2.50;;;20.30;13.70;;;;;;5034357;28;38132;-79
2023/06/14 00:04:26;;;;;;;6.07;2.75;;;20.20;13.00;;;;;;5028381;28;37191;-79
2023/06/14 00:06:52;;;;;;;4.18;2.92;;;20.20;14.40;;;;;;5028467;28;37830;-80
2023/06/14 00:09:18;;;;;;;9.38;3.05;;;20.20;35.10;;;;;;5041152;28;37250;-79
2023/06/14 00:11:44;;;;;;;2.83;2.33;;;20.10;32.50;;;;;;5029285;28;39086;-80
2023/06/14 00:14:10;;;;;;;5.68;2.80;;;20.10;24.50;;;;;;5043954;28;38418;-80
2023/06/14 00:16:38;;;;;;;8.80;3.08;;;20.10;39.40;;;;;;5028604;28;38743;-79
2023/06/14 00:19:05;;;;;;;2.90;2.60;;;20.00;32.00;;;;;;5028963;28;36337;-80
2023/06/14 00:21:31;;;;;;;4.63;2.63;;;19.90;59.10;;;;;;5034859;28;37658;-79
2023/06/14 00:23:58;;;;;;;6.20;2.50;;;19.90;39.60;;;;;;5043425;28;38746;-79
2023/06/14 00:26:26;;;;;;;4.13;2.60;;;19.90;76.30;;;;;;5045692;28;37174;-80
2023/06/14 00:28:53;;;;;;;6.78;2.92;;;19.80;55.80;;;;;;5028223;28;36305;-79
2023/06/14 00:31:19;;;;;;;6.88;2.85;;;19.80;59.50;;;;;;5045264;28;39145;-79
2023/06/14 00:33:46;;;;;;;4.18;2.38;;;19.70;80.90;;;;;;5040712;28;38424;-79
2023/06/14 00:36:12;;;;;;;5.88;2.97;;;19.70;90.90;;;;;;5030627;28;36517;-79
2023/06/14 00:38:38;;;;;;;6.13;2.65;;;19.60;99.90;;;;;;5026951;28;37842;-79
2023/06/14 00:41:04;;;;;;;4.05;2.70;;;19.60;99.90;;;;;;5044427;28;40978;-78
2023/06/14 00:43:31;;;;;;;7.18;3.10;;;19.60;99.90;;;;;;5029916;28;37656;-80
2023/06/14 00:45:58;;;;;;;9.00;2.60;;;19.60;99.90;;;;;;5048452;28;37791;-79
2023/06/14 00:48:24;;;;;;;5.80;2.60;;;19.50;99.90;;;;;;5037373;28;39938;-79
2023/06/14 00:50:52;;;;;;;3.30;2.80;;;19.50;99.90;;;;;;5026740;28;38678;-80
2023/06/14 00:53:20;;;;;;;5.78;2.78;;;19.40;99.90;;;;;;5045441;28;40003;-79
2023/06/14 00:55:47;;;;;;;7.18;2.85;;;19.40;99.90;;;;;;5044957;28;37538;-79
2023/06/14 00:58:14;;;;;;;5.30;2.60;;;19.30;99.90;;;;;;5042451;28;37935;-79
2023/06/14 01:03:21;;;;;;;4.93;2.78;;;19.20;99.90;;;;;;5225606;22;20058;-79
2023/06/14 01:05:51;;;;;;;8.80;3.20;;;19.30;99.90;;;;;;5019878;28;36910;-78
2023/06/14 01:08:31;;;;;;;5.35;2.97;;;19.30;99.90;;;;;;5007532;28;35875;-79
2023/06/14 01:11:31;;;;;;;5.65;3.03;;;19.20;99.90;;;;;;5020695;28;38893;-79
2023/06/14 01:14:01;;;;;;;7.07;3.45;;;19.20;99.90;;;;;;5040848;28;49481;-78
2023/06/14 01:16:29;;;;;;;7.38;3.55;;;19.30;99.90;;;;;;5043956;28;48025;-79
2023/06/14 01:18:56;;;;;;;4.35;3.00;;;19.20;99.90;;;;;;5021240;28;36535;-80
2023/06/14 01:21:23;;;;;;;6.93;4.28;;;19.20;99.90;;;;;;5032274;28;38652;-79
2023/06/14 01:23:54;;;;;;;5.00;3.33;;;19.20;99.90;;;;;;5041832;28;37322;-79
2023/06/14 01:26:21;;;;;;;5.90;3.30;;;19.10;99.90;;;;;;5033031;28;37942;-78
2023/06/14 01:28:49;;;;;;;6.40;3.00;;;19.10;99.90;;;;;;5029454;28;37142;-79
2023/06/14 01:31:24;;;;;;;5.18;3.28;;;19.00;99.90;;;;;;5027041;28;38886;-79
2023/06/14 01:33:51;;;;;;;5.28;3.20;;;18.90;99.90;;;;;;5019963;28;37208;-79
2023/06/14 01:36:19;;;;;;;5.70;3.10;;;19.00;99.90;;;;;;5027432;28;36860;-79
2023/06/14 01:38:50;;;;;;;5.28;2.83;;;19.00;99.90;;;;;;5027885;28;36201;-79
2023/06/14 01:41:18;;;;;;;5.38;3.00;;;19.00;99.90;;;;;;5032508;28;39435;-79
2023/06/14 01:43:46;;;;;;;4.57;3.13;;;19.00;99.90;;;;;;5049937;28;39299;-78
2023/06/14 01:46:14;;;;;;;5.82;3.08;;;19.00;99.90;;;;;;5018718;28;36834;-78
2023/06/14 01:48:40;;;;;;;4.55;2.72;;;19.00;99.90;;;;;;5020030;28;37281;-79
2023/06/14 01:51:06;;;;;;;6.18;2.97;;;18.90;99.90;;;;;;5023199;28;39245;-78
2023/06/14 01:53:32;;;;;;;6.38;2.97;;;18.80;99.90;;;;;;5019692;28;37883;-78
2023/06/14 01:55:59;;;;;;;6.47;2.80;;;18.70;99.90;;;;;;5028520;28;36861;-79
2023/06/14 01:58:26;;;;;;;5.15;2.85;;;18.70;99.90;;;;;;5030138;28;37150;-79
2023/06/14 02:00:55;;;;;;;8.30;3.10;;;18.60;99.90;;;;;;5024419;28;39599;-78
2023/06/14 02:03:21;;;;;;;4.13;2.88;;;18.60;99.90;;;;;;5028448;28;37528;-78
2023/06/14 02:05:47;;;;;;;5.53;3.10;;;18.60;99.90;;;;;;5045392;28;37760;-79
2023/06/14 02:08:13;;;;;;;6.43;2.38;;;18.50;99.90;;;;;;5042124;28;36910;-79
2023/06/14 02:10:39;;;;;;;4.38;2.92;;;18.50;99.90;;;;;;5044406;28;38640;-79
2023/06/14 02:13:05;;;;;;;3.50;2.80;;;18.50;99.90;;;;;;5044822;28;38232;-78
2023/06/14 02:15:33;;;;;;;5.72;3.10;;;18.30;99.90;;;;;;5040043;28;37288;-79
2023/06/14 02:18:03;;;;;;;6.28;2.63;;;18.20;99.90;;;;;;5031430;28;36568;-79
2023/06/14 02:20:30;;;;;;;4.53;2.65;;;18.20;99.90;;;;;;5029390;28;47197;-79
2023/06/14 02:22:56;;;;;;;5.70;3.13;;;18.10;99.90;;;;;;5046961;28;38497;-79
2023/06/14 02:25:22;;;;;;;7.72;3.13;;;18.00;1.00;;;;;;5044221;28;38715;-79
2023/06/14 02:27:48;;;;;;;6.60;3.60;;;17.90;1.00;;;;;;5045583;28;36148;-79
2023/06/14 02:30:15;;;;;;;5.07;3.30;;;17.90;1.00;;;;;;5050138;28;38859;-78
2023/06/14 02:32:42;;;;;;;3.75;2.80;;;17.90;1.00;;;;;;5031940;28;37493;-79
2023/06/14 02:35:09;;;;;;;8.10;2.88;;;17.90;99.90;;;;;;5051922;28;38706;-80
2023/06/14 02:37:35;;;;;;;4.13;2.88;;;17.90;1.00;;;;;;5034230;28;36393;-79
2023/06/14 02:40:01;;;;;;;9.32;3.40;;;17.80;1.00;;;;;;5049856;28;39647;-80
2023/06/14 02:42:27;;;;;;;6.10;2.92;;;17.80;1.00;;;;;;5024678;28;37381;-79
2023/06/14 02:44:54;;;;;;;5.35;2.90;;;17.70;1.00;;;;;;5034107;28;37875;-79
2023/06/14 02:47:20;;;;;;;5.22;3.20;;;17.70;1.00;;;;;;5034056;28;36953;-79
2023/06/14 02:49:46;;;;;;;13.23;3.47;;;17.70;1.00;;;;;;5033576;28;37614;-79
2023/06/14 02:52:12;;;;;;;5.07;2.97;;;17.70;1.00;;;;;;5034404;28;37116;-79
2023/06/14 02:54:38;;;;;;;7.70;3.20;;;17.70;1.00;;;;;;5034659;28;36705;-79
2023/06/14 02:57:06;;;;;;;5.82;2.63;;;17.70;1.00;;;;;;5032917;28;37544;-78
2023/06/14 02:59:33;;;;;;;5.28;2.50;;;17.70;1.00;;;;;;5028749;28;39608;-78
2023/06/14 03:01:59;;;;;;;5.18;3.10;;;17.70;1.00;;;;;;5048208;28;37942;-78
2023/06/14 03:04:25;;;;;;;5.15;3.33;;;17.60;1.00;;;;;;5029664;28;37571;-78
2023/06/14 03:06:53;;;;;;;7.68;3.00;;;17.60;1.00;;;;;;5032234;28;34438;-78
2023/06/14 03:09:20;;;;;;;3.92;3.17;;;17.60;1.00;;;;;;5031996;28;39226;-78
2023/06/14 03:11:46;;;;;;;5.75;2.88;;;17.60;1.00;;;;;;5048421;28;39346;-78
2023/06/14 03:14:13;;;;;;;5.82;3.30;;;17.60;1.00;;;;;;5030733;28;36404;-78
2023/06/14 03:16:41;;;;;;;8.30;3.05;;;17.50;1.00;;;;;;5029270;28;36052;-78
2023/06/14 03:19:07;;;;;;;8.23;2.92;;;17.50;1.00;;;;;;5030746;28;39200;-78
2023/06/14 03:21:34;;;;;;;5.32;2.70;;;17.50;1.00;;;;;;5046833;28;38924;-78
2023/06/14 03:24:01;;;;;;;5.07;2.95;;;17.30;3.80;;;;;;5031335;28;36631;-78
2023/06/14 03:26:28;;;;;;;8.25;3.05;;;17.30;1.00;;;;;;5026629;28;47224;-78
2023/06/14 03:28:57;;;;;;;3.67;2.95;;;17.30;7.20;;;;;;5051373;28;38621;-78
2023/06/14 03:31:23;;;;;;;5.88;3.50;;;17.30;99.90;;;;;;5027687;28;38281;-78
2023/06/14 03:33:49;;;;;;;5.63;3.20;;;17.20;99.90;;;;;;5028984;28;39486;-79
2023/06/14 03:36:15;;;;;;;6.18;3.20;;;17.20;99.90;;;;;;5029942;28;37088;-78
2023/06/14 03:38:41;;;;;;;8.52;3.28;;;17.20;99.90;;;;;;5039602;28;37825;-78
2023/06/14 03:41:07;;;;;;;9.43;3.28;;;17.20;1.80;;;;;;5044799;28;38409;-78
2023/06/14 03:43:34;;;;;;;4.47;3.10;;;17.20;70.20;;;;;;5031223;28;36726;-78
2023/06/14 03:46:00;;;;;;;8.55;3.28;;;17.20;54.60;;;;;;5032378;28;36033;-78
2023/06/14 03:48:26;;;;;;;5.20;3.17;;;17.20;1.00;;;;;;5036000;28;41227;-78
2023/06/14 03:50:54;;;;;;;8.63;2.80;;;17.10;1.00;;;;;;5050027;28;39345;-78
2023/06/14 03:53:23;;;;;;;6.18;3.20;;;17.10;1.00;;;;;;5029411;28;37479;-78
2023/06/14 03:55:52;;;;;;;4.20;2.65;;;17.00;91.20;;;;;;5023921;28;36322;-79
2023/06/14 03:58:18;;;;;;;7.65;2.88;;;17.00;99.90;;;;;;5017210;28;38528;-78
2023/06/14 04:00:46;;;;;;;4.65;3.10;;;17.00;1.00;;;;;;5021050;28;37198;-79
2023/06/14 04:03:13;;;;;;;5.03;3.17;;;17.10;99.90;;;;;;5049034;28;38605;-79
2023/06/14 04:05:42;;;;;;;4.20;3.05;;;17.00;99.90;;;;;;5019372;28;36065;-79
2023/06/14 04:08:09;;;;;;;6.72;2.95;;;17.10;99.90;;;;;;5025463;28;37673;-78
2023/06/14 04:10:35;;;;;;;5.22;3.00;;;17.00;1.00;;;;;;5030915;28;37212;-78
2023/06/14 04:13:01;;;;;;;3.90;2.75;;;17.00;99.90;;;;;;5032545;28;36437;-78
2023/06/14 04:15:28;;;;;;;8.27;3.10;;;17.00;65.70;;;;;;5046255;28;38116;-79
2023/06/14 04:17:58;;;;;;;4.82;3.03;;;17.10;99.90;;;;;;5030672;28;37602;-78
2023/06/14 04:20:27;;;;;;;5.07;2.95;;;17.10;1.00;;;;;;5024252;28;38473;-79
2023/06/14 04:22:53;;;;;;;5.78;2.78;;;17.10;1.00;;;;;;5023099;28;36723;-78
2023/06/14 04:25:20;;;;;;;5.60;3.28;;;17.10;96.60;;;;;;5024995;28;35589;-78
2023/06/14 04:27:47;;;;;;;8.32;2.85;;;17.10;99.90;;;;;;5042387;28;37718;-79
2023/06/14 04:30:13;;;;;;;5.97;3.05;;;17.20;1.00;;;;;;5029772;28;38525;-78
2023/06/14 04:32:39;;;;;;;6.25;2.90;;;17.20;1.00;;;;;;5023263;28;36892;-78
2023/06/14 04:35:08;;;;;;;6.03;3.13;;;17.30;33.80;;;;;;5025040;28;36038;-78
2023/06/14 04:37:34;;;;;;;5.00;2.80;;;17.30;99.90;;;;;;5026805;28;37758;-78
2023/06/14 04:40:01;;;;;;;7.50;3.33;;;17.30;99.90;;;;;;5045046;28;38472;-78
2023/06/14 04:42:31;;;;;;;8.35;3.00;;;17.30;99.90;;;;;;5042544;28;37578;-78
2023/06/14 04:44:58;;;;;;;5.65;2.97;;;17.30;1.00;;;;;;5044649;28;37076;-79
2023/06/14 04:53:12;;;;;;;3.47;2.63;;;17.40;1.00;;;;;;5479546;23;20038;-83
2023/06/14 04:56:18;;;;;;;9.32;3.30;;;17.40;99.90;;;;;;4972303;28;38476;-83
2023/06/14 04:59:55;;;;;;;4.45;2.97;;;17.50;1.00;;;;;;4980960;28;49084;-82
2023/06/14 05:03:30;;;;;;;7.28;3.53;;;17.80;1.00;;;;;;4931942;28;39806;-83
2023/06/14 05:06:54;;;;;;;5.88;2.40;;;18.30;1.00;;;;;;4926777;28;50071;-82
2023/06/14 05:10:39;;;;;;;5.18;3.15;;;18.60;99.90;;;;;;4933427;28;38644;-82
2023/06/14 05:34:08;;;;;;;7.60;3.20;;;19.80;1.00;;;;;;5688512;23;20050;-79
2023/06/14 05:36:50;;;;;;;3.83;2.70;;;19.90;1.00;;;;;;5851690;23;39158;-81
2023/06/14 05:48:44;;;;;;;9.75;2.58;;;20.10;99.90;;;;;;4981886;28;20048;-82
2023/06/14 06:11:13;;;;;;;6.40;2.90;;;20.80;99.90;;;;;;5970666;23;20054;-81
2023/06/14 06:13:40;;;;;;;5.28;2.60;;;20.80;99.90;;;;;;4944634;28;47051;-79
2023/06/14 06:16:09;;;;;;;3.92;2.63;;;21.10;99.90;;;;;;4950765;28;37157;-80
2023/06/14 06:18:36;;;;;;;7.25;2.92;;;21.10;99.90;;;;;;4953540;28;36450;-79
2023/06/14 06:30:44;;;;;;;7.70;3.15;;;21.70;99.90;;;;;;5212843;23;20052;-80
2023/06/14 06:33:16;;;;;;;6.78;3.00;;;21.60;99.90;;;;;;4943376;28;38178;-80
2023/06/14 06:36:06;;;;;;;4.63;3.00;;;21.70;99.90;;;;;;4966489;28;39216;-81
2023/06/14 06:38:45;;;;;;;4.28;2.97;;;21.80;99.90;;;;;;4946621;28;48505;-81
2023/06/14 06:41:14;;;;;;;9.15;3.30;;;21.90;99.90;;;;;;4924987;28;37680;-80
2023/06/14 06:43:42;;;;;;;7.75;3.38;;;22.00;99.90;;;;;;4967053;28;40371;-80
2023/06/14 06:46:25;;;;;;;6.03;2.95;;;22.10;99.90;;;;;;4934053;28;38712;-81
2023/06/14 06:48:55;;;;;;;4.18;3.15;;;22.20;99.90;;;;;;4965728;28;38506;-80
2023/06/14 06:51:22;;;;;;;7.40;3.45;;;22.30;99.90;;;;;;4962975;28;36943;-79
2023/06/14 06:53:56;;;;;;;4.85;2.70;;;22.50;99.90;;;;;;4948562;28;39094;-80
2023/06/14 06:56:56;;;;;;;8.15;3.00;;;22.60;99.90;;;;;;4928180;28;38856;-80
2023/06/14 06:59:25;;;;;;;7.97;2.83;;;22.60;99.90;;;;;;4909153;28;38181;-80
2023/06/14 07:02:03;;;;;;;10.25;3.25;;;22.80;99.90;;;;;;4958168;28;37814;-80
2023/06/14 07:04:38;;;;;;;8.40;3.10;;;22.80;99.90;;;;;;4932947;28;48587;-80
2023/06/14 07:07:06;;;;;;;4.10;2.80;;;23.00;99.90;;;;;;4939214;28;38121;-80
2023/06/14 07:09:41;;;;;;;6.55;3.22;;;23.10;99.90;;;;;;4950612;28;36356;-80
2023/06/14 07:12:09;;;;;;;9.57;3.25;;;23.20;99.90;;;;;;4936149;28;37693;-80
2023/06/14 07:15:10;;;;;;;7.15;3.53;;;23.30;99.90;;;;;;4960788;28;40169;-81
2023/06/14 07:17:59;;;;;;;;;;;23.00;99.90;;;;;;5047730;23;50272;-81
2023/06/14 07:20:40;;;;;;;7.15;3.40;;;23.00;99.90;;;;;;4923213;28;37100;-81
2023/06/14 07:23:08;;;;;;;7.53;3.30;;;23.10;99.90;;;;;;4914783;29;36572;-80
2023/06/14 07:25:37;;;;;;;8.20;2.60;;;23.30;99.90;;;;;;4922218;28;37743;-80
2023/06/14 07:28:04;;;;;;;6.03;2.67;;;23.30;99.90;;;;;;4914937;29;38009;-79
2023/06/14 07:30:31;;;;;;;4.93;3.25;;;23.50;99.90;;;;;;4908808;28;38067;-80
2023/06/14 07:32:57;;;;;;;37.15;5.40;;;23.70;99.90;;;;;;4914531;28;37369;-79
2023/06/14 07:35:24;;;;;;;9.85;3.00;;;23.80;99.90;;;;;;4929087;28;39791;-81
2023/06/14 07:37:51;;;;;;;10.00;3.65;;;23.90;99.90;;;;;;4921549;28;38888;-80
2023/06/14 07:40:17;;;;;;;9.65;3.60;;;23.70;94.70;;;;;;4918060;28;38671;-81
2023/06/14 07:42:44;;;;;;;7.65;3.08;;;23.60;73.60;;;;;;4935767;28;36995;-81
2023/06/14 07:45:15;;;;;;;12.98;3.42;;;23.50;97.60;;;;;;4920704;29;37546;-80
2023/06/14 07:47:44;;;;;;;6.07;3.17;;;23.80;81.50;;;;;;4932384;28;39564;-80
2023/06/14 07:50:14;;;;;;;6.38;3.33;;;24.10;92.70;;;;;;4933913;28;38462;-81
2023/06/14 07:52:40;;;;;;;7.93;3.28;;;24.40;70.40;;;;;;4928078;28;37810;-80
2023/06/14 07:55:07;;;;;;;10.25;2.95;;;24.60;64.20;;;;;;4917277;28;38171;-80
2023/06/14 07:57:33;;;;;;;6.70;2.90;;;24.70;60.90;;;;;;4920069;28;38538;-80
2023/06/14 07:59:59;;;;;;;9.00;2.92;;;24.70;50.40;;;;;;4919941;28;38069;-79
2023/06/14 08:02:25;;;;;;;8.20;3.92;;;24.70;40.40;;;;;;4901138;28;37618;-78
2023/06/14 08:04:52;;;;;;;10.32;3.00;;;24.80;27.80;;;;;;4897402;28;37682;-79
2023/06/14 08:07:18;;;;;;;7.85;2.95;;;24.60;29.30;;;;;;4914078;28;38303;-78
2023/06/14 08:09:46;;;;;;;8.20;3.17;;;24.50;32.90;;;;;;4924651;28;38166;-80
2023/06/14 08:12:12;;;;;;;5.95;3.38;;;24.70;24.70;;;;;;4917360;28;38360;-80
2023/06/14 08:14:42;;;;;;;9.57;3.40;;;25.00;25.90;;;;;;4947531;28;39039;-81
2023/06/14 08:17:08;;;;;;;8.57;2.90;;;25.00;23.20;;;;;;4980091;23;38958;-79
2023/06/14 08:19:34;;;;;;;5.93;3.22;;;25.10;29.70;;;;;;4975110;28;37720;-81
2023/06/14 08:22:01;;;;;;;7.97;3.03;;;25.20;16.50;;;;;;4991220;28;38806;-80
2023/06/14 08:24:27;;;;;;;6.40;2.85;;;25.00;9.80;;;;;;4983620;28;46629;-80
2023/06/14 08:26:54;;;;;;;6.88;2.75;;;25.00;24.10;;;;;;4967167;28;37475;-80
2023/06/14 08:29:38;;;;;;;6.72;3.40;;;25.50;24.00;;;;;;4967985;28;38870;-81
2023/06/14 08:32:23;;;;;;;6.95;2.97;;;25.50;28.20;;;;;;4971491;28;37707;-81
2023/06/14 08:34:50;;;;;;;5.10;2.88;;;25.60;21.70;;;;;;4968105;28;38097;-80
2023/06/14 08:37:45;;;;;;;5.10;2.90;;;25.90;19.70;;;;;;4991281;28;38837;-81
2023/06/14 08:40:20;;;;;;;5.93;3.15;;;25.80;18.70;;;;;;4975066;23;38546;-80
2023/06/14 08:42:54;;;;;;;7.80;2.95;;;26.00;2.20;;;;;;4958794;28;35314;-80
2023/06/14 08:45:22;;;;;;;6.05;2.85;;;26.00;9.20;;;;;;4946958;28;37845;-80
2023/06/14 08:47:51;;;;;;;5.72;2.97;;;25.70;1.00;;;;;;4960554;28;38419;-80
2023/06/14 08:50:29;;;;;;;9.38;2.92;;;25.70;1.00;;;;;;4960060;28;39786;-80
2023/06/14 08:53:01;;;;;;;8.75;3.45;;;25.90;1.00;;;;;;4960459;28;38141;-81
2023/06/14 08:55:34;;;;;;;5.40;2.80;;;26.20;1.00;;;;;;4950029;28;48187;-80
2023/06/14 08:58:01;;;;;;;6.25;3.08;;;26.10;1.00;;;;;;4935732;28;37777;-80
2023/06/14 09:00:28;;;;;;;7.32;3.15;;;26.30;1.00;;;;;;4936382;28;36779;-81
2023/06/14 09:02:57;;;;;;;6.32;2.50;;;25.70;1.00;;;;;;4940396;28;35913;-80
2023/06/14 09:05:25;;;;;;;10.75;3.08;;;25.90;1.00;;;;;;4942843;28;39114;-79
2023/06/14 09:07:52;;;;;;;7.45;3.00;;;26.30;1.00;;;;;;4961254;28;38772;-80
2023/06/14 09:10:22;;;;;;;7.00;3.13;;;25.90;1.00;;;;;;4933508;28;37251;-81
2023/06/14 09:12:51;;;;;;;9.40;3.10;;;26.20;1.00;;;;;;4967572;28;37903;-81
2023/06/14 09:15:33;;;;;;;15.35;3.15;;;26.20;1.00;;;;;;4948491;28;38370;-81
2023/06/14 09:18:38;;;;;;;8.60;3.17;;;26.20;1.00;;;;;;4941137;28;37941;-82
2023/06/14 09:21:09;;;;;;;8.10;2.80;;;26.50;1.00;;;;;;4964185;28;39569;-81
2023/06/14 09:23:44;;;;;;;7.78;2.88;;;26.90;1.00;;;;;;4973462;28;38032;-81
2023/06/14 09:26:17;;;;;;;7.45;2.72;;;26.90;1.00;;;;;;4963258;28;40331;-81
2023/06/14 09:31:47;;;;;;;8.00;2.58;;;26.60;1.00;;;;;;5131859;23;20805;31
2023/06/14 09:34:13;;;;;;;4.40;2.45;;;26.90;1.00;;;;;;4911538;28;38128;-81
2023/06/14 09:36:42;;;;;;;7.07;2.72;;;26.80;1.00;;;;;;4942867;28;39395;-79
2023/06/14 09:39:09;;;;;;;7.53;2.53;;;26.20;1.00;;;;;;4930938;28;37924;-79
2023/06/14 09:41:42;;;;;;;7.78;2.58;;;26.20;1.00;;;;;;4921432;28;37018;-80
2023/06/14 09:44:39;;;;;;;4.45;2.50;;;26.30;1.00;;;;;;4908912;28;37443;-80
2023/06/14 09:47:20;;;;;;;7.05;2.70;;;26.50;1.00;;;;;;4926918;28;40204;-82
2023/06/14 09:50:06;;;;;;;5.70;2.63;;;27.00;1.00;;;;;;4937994;28;39787;-81
2023/06/14 09:53:04;;;;;;;6.18;2.38;;;27.20;1.00;;;;;;4912667;28;50013;-81
2023/06/14 09:55:35;;;;;;;6.32;2.88;;;27.30;1.00;;;;;;4908265;28;48876;-80
2023/06/14 09:58:43;;;;;;;6.88;2.33;;;27.40;1.00;;;;;;4942043;28;37320;-81
2023/06/14 10:01:42;;;;;;;9.50;2.38;;;27.30;1.00;;;;;;4908364;28;49106;-81
2023/06/14 10:04:10;;;;;;;5.70;2.40;;;27.10;1.00;;;;;;4929117;29;37850;-78
2023/06/14 10:09:22;;;;;;;7.47;2.05;;;27.10;1.00;;;;;;5087574;23;20020;-81
2023/06/14 10:11:50;;;;;;;5.75;2.63;;;27.10;1.00;;;;;;5037651;23;38661;-79
2023/06/14 10:17:48;;;;;;;5.18;2.30;;;26.80;1.00;;;;;;5179843;23;20027;-81
2023/06/14 10:21:22;;;;;;;3.37;2.10;;;26.70;1.00;;;;;;4913949;28;49859;-81
2023/06/14 10:24:12;;;;;;;8.18;2.00;;;27.00;1.00;;;;;;4968384;28;39888;-81
2023/06/14 10:29:57;;;;;;;4.63;2.50;;;27.20;1.00;;;;;;5803438;23;19931;31
2023/06/14 10:35:29;;;;;;;6.38;1.90;;;28.30;1.00;;;;;;5473681;23;20037;-81
2023/06/14 10:38:08;;;;;;;4.45;1.92;;;27.60;1.00;;;;;;4938044;28;38083;-81
2023/06/14 10:40:36;;;;;;;5.72;2.20;;;28.00;1.00;;;;;;4936190;28;49909;-80
2023/06/14 10:43:44;;;;;;;3.85;1.80;;;28.10;1.00;;;;;;4945114;28;39237;-81
2023/06/14 10:46:35;;;;;;;5.47;1.95;;;27.70;1.00;;;;;;5001082;23;39138;-80
2023/06/14 10:49:18;;;;;;;3.10;1.80;;;27.40;1.00;;;;;;4951799;28;39363;-79
2023/06/14 10:51:58;;;;;;;6.13;2.10;;;27.10;1.00;;;;;;4963901;28;50343;-80
2023/06/14 10:57:01;;;;;;;4.50;2.00;;;27.40;1.00;;;;;;4970920;23;20044;-81
2023/06/14 10:59:32;;;;;;;4.60;2.17;;;27.20;1.00;;;;;;4969307;28;49222;-81
2023/06/14 11:04:57;;;;;;;9.30;2.10;;;27.40;1.00;;;;;;4724641;26;20043;-80
2023/06/14 11:08:15;;;;;;;2.75;1.70;;;27.80;1.00;;;;;;4966289;28;39722;-80
2023/06/14 11:10:47;;;;;;;3.38;1.70;;;27.90;1.00;;;;;;4966678;28;49121;-80
2023/06/14 11:13:28;;;;;;;3.88;1.67;;;28.30;1.00;;;;;;4966131;28;38578;-79
2023/06/14 11:15:57;;;;;;;4.65;1.95;;;28.40;1.00;;;;;;4961516;28;39043;-80
2023/06/14 11:18:31;;;;;;;3.70;1.50;;;28.40;1.00;;;;;;4966108;28;38855;-80
2023/06/14 11:21:01;;;;;;;4.10;1.52;;;28.00;1.00;;;;;;4977497;28;36633;-80
2023/06/14 11:23:31;;;;;;;4.85;1.63;;;27.90;1.00;;;;;;4967020;28;47535;-81
2023/06/14 11:26:06;;;;;;;2.35;1.27;;;27.70;1.00;;;;;;4987557;28;39752;-80
2023/06/14 11:29:09;;;;;;;2.28;1.30;;;27.80;1.00;;;;;;4985370;28;49452;-80
2023/06/14 11:34:21;;;;;;;1.30;1.17;;;28.00;1.00;;;;;;5363896;23;19931;-79
2023/06/14 11:37:06;;;;;;;1.17;1.08;;;28.00;1.00;;;;;;4947489;28;39425;-80
2023/06/14 11:40:09;;;;;;;2.08;1.23;;;28.20;1.00;;;;;;4954664;28;50172;-80
2023/06/14 11:42:42;;;;;;;1.95;1.05;;;28.40;1.00;;;;;;4948692;28;49289;-80
2023/06/14 11:55:20;;;;;;;3.65;1.67;;;27.70;1.00;;;;;;5580290;23;20056;-81
2023/06/14 12:07:45;;;;;;;4.53;1.13;;;28.90;1.00;;;;;;4523330;23;20052;-80
2023/06/14 12:11:18;;;;;;;1.80;0.95;;;28.40;1.00;;;;;;4952886;28;50409;-80
2023/06/14 12:14:26;;;;;;;1.38;1.20;;;28.40;1.00;;;;;;4933044;28;48115;-81
2023/06/14 12:20:19;;;;;;;2.22;1.23;;;28.70;1.00;;;;;;5085706;23;20044;-79
2023/06/14 12:23:08;;;;;;;;;;;28.30;1.00;;;;;;4963914;28;39193;-80
2023/06/14 12:25:38;;;;;;;1.48;1.30;;;28.00;1.00;;;;;;4980586;28;39401;-80
2023/06/14 12:28:33;;;;;;;2.08;1.10;;;28.40;1.00;;;;;;4966988;28;39882;-80
2023/06/14 12:33:37;;;;;;;2.60;1.70;;;28.40;1.00;;;;;;5289628;23;20037;-80
2023/06/14 12:36:08;;;;;;;2.30;1.67;;;28.40;1.00;;;;;;4953292;28;41182;-80
2023/06/14 12:38:37;;;;;;;2.35;1.45;;;28.50;1.00;;;;;;4948526;28;39877;-81
2023/06/14 12:41:04;;;;;;;2.80;1.40;;;28.30;1.00;;;;;;5229341;23;38415;-79
2023/06/14 12:43:34;;;;;;;1.65;1.55;;;28.40;1.00;;;;;;4948770;28;38468;-80
2023/06/14 12:46:39;;;;;;;3.47;1.52;;;28.60;1.00;;;;;;4953802;28;39118;-79
2023/06/14 13:02:25;;;;;;;4.38;1.55;;;28.60;1.00;;;;;;4919809;23;20051;-80
2023/06/14 13:05:30;;;;;;;3.00;1.48;;;28.40;1.00;;;;;;4960986;28;37826;-80
2023/06/14 13:08:00;;;;;;;3.80;1.40;;;28.30;1.00;;;;;;5676904;23;38021;-83
2023/06/14 13:14:03;;;;;;;3.92;1.58;;;28.40;1.00;;;;;;4876997;29;50121;-81
2023/06/14 13:16:48;;;;;;;4.43;1.70;;;28.50;1.00;;;;;;4906597;28;38716;-81
2023/06/14 13:21:51;;;;;;;4.50;1.38;;;28.50;1.00;;;;;;5396127;23;20108;-80
2023/06/14 13:24:23;;;;;;;4.47;1.20;;;28.30;1.00;;;;;;4947402;28;38757;-80
2023/06/14 13:27:07;;;;;;;4.07;1.30;;;28.70;1.00;;;;;;4948080;28;36429;-80
2023/06/14 13:29:38;;;;;;;2.25;1.42;;;28.70;1.00;;;;;;4922368;28;50091;-80
2023/06/14 13:32:14;;;;;;;2.50;1.67;;;28.80;1.00;;;;;;4951898;28;38178;-80
2023/06/14 13:34:49;;;;;;;3.92;1.50;;;28.80;1.00;;;;;;4945270;28;39503;-80
2023/06/14 13:37:18;;;;;;;3.30;1.50;;;28.80;1.00;;;;;;4949284;28;20044;-80
2023/06/14 13:46:07;;;;;;;4.97;1.27;;;28.10;1.00;;;;;;4968895;23;20051;-80
2023/06/14 13:48:43;;;;;;;5.18;1.67;;;28.10;1.00;;;;;;4906732;29;48346;-80
2023/06/14 13:51:14;;;;;;;6.07;1.60;;;28.10;1.00;;;;;;4897146;29;40348;-80
2023/06/14 13:53:45;;;;;;;2.90;1.55;;;27.70;1.00;;;;;;4919313;29;39838;-81
2023/06/14 13:56:30;;;;;;;6.25;1.60;;;28.20;1.00;;;;;;4911544;29;37294;-81
2023/06/14 13:58:58;;;;;;;2.60;1.60;;;28.30;1.00;;;;;;4926484;29;38630;-81
2023/06/14 14:01:51;;;;;;;1.90;1.52;;;28.40;1.00;;;;;;4921109;29;39516;-81
2023/06/14 14:04:35;;;;;;;3.10;1.20;;;28.40;1.00;;;;;;4896682;29;50251;-80
2023/06/14 14:07:11;;;;;;;3.17;1.27;;;28.50;1.00;;;;;;4923896;29;38157;-80
2023/06/14 14:09:39;;;;;;;2.35;1.33;;;28.80;1.00;;;;;;4910601;29;48722;-80
2023/06/14 14:12:12;;;;;;;3.58;1.45;;;29.10;1.00;;;;;;4913769;29;38254;-80
2023/06/14 14:14:39;;;;;;;1.80;1.50;;;29.00;1.00;;;;;;4918065;29;46930;-80
2023/06/14 14:17:07;;;;;;;3.67;1.70;;;28.60;1.00;;;;;;4919962;29;37718;-80
2023/06/14 14:19:35;;;;;;;2.65;1.35;;;28.40;1.00;;;;;;4944015;28;36954;-80
2023/06/14 14:22:13;;;;;;;1.92;1.40;;;28.50;1.00;;;;;;4955499;28;38454;-81
2023/06/14 14:24:39;;;;;;;4.43;1.42;;;28.60;1.00;;;;;;4977844;28;37793;-80
2023/06/14 14:27:14;;;;;;;1.85;1.20;;;28.60;1.00;;;;;;4969156;28;38288;-80
2023/06/14 14:29:47;;;;;;;1.88;1.40;;;28.40;1.00;;;;;;4957891;28;37680;-80
2023/06/14 14:32:20;;;;;;;2.22;1.50;;;28.30;1.00;;;;;;4978214;28;39396;-79
2023/06/14 14:37:49;;;;;;;2.83;1.50;;;28.50;1.00;;;;;;5612457;23;23492;-79
2023/06/14 14:40:21;;;;;;;2.95;1.52;;;28.50;1.00;;;;;;4984489;28;37642;-80
2023/06/14 14:45:26;;;;;;;7.80;1.55;;;28.50;1.00;;;;;;5263789;23;20080;-80
2023/06/14 14:48:31;;;;;;;1.58;1.35;;;28.20;1.00;;;;;;5193193;23;38312;-80
2023/06/14 14:51:51;;;;;;;1.77;1.42;;;28.00;1.00;;;;;;4972432;28;37521;-84
2023/06/14 15:00:05;;;;;;;2.50;1.80;;;27.90;1.00;;;;;;4941672;23;20030;31
2023/06/14 15:02:31;;;;;;;3.42;1.63;;;27.90;1.00;;;;;;4912715;23;36455;-83
2023/06/14 15:05:00;;;;;;;2.60;1.40;;;27.90;1.00;;;;;;5314076;23;39650;-81
2023/06/14 15:13:35;;;;;;;1.50;1.30;;;27.90;1.00;;;;;;5009530;23;21524;-78
2023/06/14 15:18:37;;;;;;;4.30;1.63;;;28.30;1.00;;;;;;5294389;23;20101;-81
2023/06/14 15:21:03;;;;;;;4.50;1.65;;;28.30;1.00;;;;;;4959893;28;39293;-79
2023/06/14 15:23:55;;;;;;;6.43;1.70;;;28.30;1.00;;;;;;4953339;28;36166;-81
2023/06/14 15:29:46;;;;;;;4.40;2.63;;;28.10;1.00;;;;;;4203516;23;20063;-82
2023/06/14 15:35:16;;;;;;;;;;;28.20;1.00;;;;;;5489300;23;20052;-81
2023/06/14 15:37:42;;;;;;;2.20;1.75;;;28.40;1.00;;;;;;5375019;23;39202;-78
2023/06/14 15:40:12;;;;;;;2.28;1.40;;;28.20;1.00;;;;;;4951084;28;37323;-81
2023/06/14 15:42:56;;;;;;;1.75;1.52;;;28.30;1.00;;;;;;4967767;28;39867;-81
2023/06/14 15:45:23;;;;;;;2.20;1.63;;;28.40;1.00;;;;;;4952126;28;38871;-79
2023/06/14 15:47:50;;;;;;;3.90;1.48;;;28.50;1.00;;;;;;4949901;28;39950;-79
2023/06/14 15:52:52;;;;;;;4.40;1.50;;;28.20;1.00;;;;;;5007632;23;20028;-80
2023/06/14 15:55:21;;;;;;;2.13;1.50;;;27.90;1.00;;;;;;5200944;23;37277;-80
2023/06/14 15:57:47;;;;;;;2.50;1.17;;;28.00;1.00;;;;;;4939541;29;38756;-79
2023/06/14 16:00:14;;;;;;;6.72;1.70;;;28.00;1.00;;;;;;4966184;28;37382;-79
2023/06/14 16:02:40;;;;;;;3.40;1.48;;;27.70;1.00;;;;;;4927451;29;38392;-80
2023/06/14 16:05:07;;;;;;;4.93;1.23;;;27.50;1.00;;;;;;4930371;29;37224;-80
2023/06/14 16:07:33;;;;;;;2.78;1.35;;;27.30;1.00;;;;;;4925045;29;39377;-80
2023/06/14 16:09:59;;;;;;;2.95;1.30;;;27.30;1.00;;;;;;4925374;28;38880;-80
2023/06/14 16:12:25;;;;;;;1.55;1.10;;;27.40;1.00;;;;;;4930126;28;39075;-80
2023/06/14 16:14:52;;;;;;;2.65;1.42;;;27.50;1.00;;;;;;4937658;29;36058;-80
2023/06/14 16:17:18;;;;;;;4.57;1.80;;;27.60;1.00;;;;;;4932168;29;38028;-80